createdAt,value
2019-01-11T00:01:26.975Z,29.43
2019-01-11T00:03:21.287Z,32.77
2019-01-11T00:05:14.236Z,33.07
2019-01-11T00:07:08.115Z,33.77
2019-01-11T00:09:01.461Z,33.83
2019-01-11T00:10:56.197Z,32.90
2019-01-11T00:12:49.260Z,34.03
2019-01-11T00:14:42.666Z,35.00
2019-01-11T00:16:36.406Z,34.63
2019-01-11T00:18:29.846Z,35.33
2019-01-11T00:20:22.561Z,33.50
2019-01-11T00:22:16.496Z,34.20
2019-01-11T00:24:10.172Z,36.47
2019-01-11T00:26:03.328Z,35.23
2019-01-11T00:27:56.192Z,34.70
2019-01-11T00:29:50.026Z,34.37
2019-01-11T00:31:44.587Z,34.53
2019-01-11T00:33:37.399Z,34.23
2019-01-11T00:35:30.441Z,35.70
2019-01-11T00:37:23.557Z,32.80
2019-01-11T00:39:16.826Z,35.07
2019-01-11T00:41:09.934Z,33.80
2019-01-11T00:43:03.372Z,37.27
2019-01-11T00:44:56.333Z,33.57
2019-01-11T00:46:51.366Z,36.17
2019-01-11T00:48:45.967Z,37.87
2019-01-11T00:50:39.521Z,37.47
2019-01-11T00:52:32.640Z,34.93
2019-01-11T00:54:25.875Z,37.43
2019-01-11T00:56:18.774Z,36.97
2019-01-11T00:58:11.794Z,35.60
2019-01-11T01:00:05.066Z,36.17
2019-01-11T01:01:58.000Z,35.03
2019-01-11T01:03:50.976Z,36.17
2019-01-11T01:05:44.337Z,39.93
2019-01-11T01:07:37.955Z,37.10
2019-01-11T01:09:30.738Z,35.13
2019-01-11T01:11:23.560Z,36.67
2019-01-11T01:13:16.518Z,37.10
2019-01-11T01:15:11.796Z,36.90
2019-01-11T01:17:05.088Z,38.27
2019-01-11T01:18:58.160Z,40.47
2019-01-11T01:20:51.042Z,36.60
2019-01-11T01:22:44.036Z,38.17
2019-01-11T01:24:37.914Z,34.43
2019-01-11T01:26:30.962Z,36.20
2019-01-11T01:28:24.731Z,38.50
2019-01-11T01:30:19.739Z,36.00
2019-01-11T01:32:13.698Z,36.27
2019-01-11T01:34:07.186Z,35.10
2019-01-11T01:36:00.144Z,33.13
2019-01-11T01:37:53.284Z,35.13
2019-01-11T01:39:46.310Z,34.13
2019-01-11T01:41:39.130Z,30.07
2019-01-11T01:43:33.256Z,33.30
2019-01-11T01:45:26.790Z,33.53
2019-01-11T01:47:19.860Z,32.47
2019-01-11T01:49:12.778Z,30.03
2019-01-11T01:51:05.879Z,31.63
2019-01-11T01:52:58.838Z,33.50
2019-01-11T01:54:51.873Z,30.33
2019-01-11T01:56:44.782Z,32.97
2019-01-11T01:58:37.879Z,32.03
2019-01-11T02:00:31.441Z,31.90
2019-01-11T02:02:24.523Z,33.93
2019-01-11T02:04:17.546Z,33.07
2019-01-11T02:06:10.642Z,32.00
2019-01-11T02:08:03.724Z,30.30
2019-01-11T02:09:58.406Z,32.50
2019-01-11T02:11:51.460Z,32.07
2019-01-11T02:13:44.501Z,32.53
2019-01-11T02:15:37.918Z,30.20
2019-01-11T02:17:30.895Z,29.93
2019-01-11T02:19:23.565Z,30.40
2019-01-11T02:21:16.639Z,32.47
2019-01-11T02:23:09.701Z,34.13
2019-01-11T02:25:02.737Z,32.13
2019-01-11T02:26:57.008Z,33.73
2019-01-11T02:28:50.146Z,33.70
2019-01-11T02:30:43.000Z,29.33
2019-01-11T02:32:35.917Z,33.47
2019-01-11T02:34:29.139Z,30.07
2019-01-11T02:36:21.977Z,30.73
2019-01-11T02:38:14.822Z,32.67
2019-01-11T02:40:08.241Z,31.53
2019-01-11T02:42:01.380Z,29.37
2019-01-11T02:43:54.198Z,30.20
2019-01-11T02:45:47.279Z,30.23
2019-01-11T02:47:40.298Z,32.13
2019-01-11T02:49:39.747Z,30.00
2019-01-11T02:51:27.947Z,30.13
2019-01-11T02:53:21.127Z,32.93
2019-01-11T02:55:14.077Z,32.00
2019-01-11T02:57:07.366Z,31.77
2019-01-11T02:59:00.033Z,31.70
2019-01-11T03:00:53.199Z,31.23
2019-01-11T03:02:46.226Z,35.07
2019-01-11T03:04:39.101Z,33.37
2019-01-11T03:06:31.846Z,35.53
2019-01-11T03:08:25.344Z,33.83
2019-01-11T03:10:23.242Z,35.80
2019-01-11T03:12:16.967Z,33.27
2019-01-11T03:14:10.561Z,31.60
2019-01-11T03:16:03.543Z,30.47
2019-01-11T03:17:56.708Z,32.53
2019-01-11T03:19:49.705Z,32.27
2019-01-11T03:21:42.722Z,33.37
2019-01-11T03:23:35.481Z,33.20
2019-01-11T03:25:28.935Z,30.13
2019-01-11T03:27:21.922Z,33.60
2019-01-11T03:29:14.716Z,32.87
2019-01-11T03:31:34.777Z,34.47
2019-01-11T03:33:27.894Z,33.67
2019-01-11T03:35:21.978Z,34.43
2019-01-11T03:37:14.935Z,33.47
2019-01-11T03:39:10.803Z,32.57
2019-01-11T03:41:04.164Z,33.30
2019-01-11T03:42:57.696Z,31.10
2019-01-11T03:44:50.906Z,32.67
2019-01-11T03:46:43.715Z,35.10
2019-01-11T03:48:36.566Z,33.20
2019-01-11T03:50:34.474Z,31.40
2019-01-11T03:52:27.394Z,35.97
2019-01-11T03:54:20.660Z,34.53
2019-01-11T03:56:13.783Z,32.97
2019-01-11T03:58:06.751Z,33.57
2019-01-11T03:59:59.648Z,33.50
2019-01-11T04:01:52.931Z,32.07
2019-01-11T04:03:46.268Z,31.50
2019-01-11T04:05:39.363Z,32.67
2019-01-11T04:07:32.214Z,31.33
2019-01-11T04:09:25.228Z,32.97
2019-01-11T04:11:18.135Z,33.97
2019-01-11T04:13:11.226Z,31.83
2019-01-11T04:15:05.746Z,35.00
2019-01-11T04:16:59.446Z,34.13
2019-01-11T04:19:15.686Z,31.63
2019-01-11T04:21:08.679Z,34.13
2019-01-11T04:23:01.808Z,32.53
2019-01-11T04:25:12.200Z,33.67
2019-01-11T04:27:05.577Z,34.33
2019-01-11T04:28:58.427Z,32.33
2019-01-11T04:30:51.560Z,33.47
2019-01-11T04:32:44.398Z,34.03
2019-01-11T04:34:37.249Z,31.93
2019-01-11T04:36:30.377Z,31.93
2019-01-11T04:38:23.874Z,30.40
2019-01-11T04:40:19.155Z,31.77
2019-01-11T04:42:11.977Z,35.83
2019-01-11T04:44:05.035Z,33.80
2019-01-11T04:45:58.145Z,34.63
2019-01-11T04:47:50.924Z,34.37
2019-01-11T04:49:44.807Z,35.07
2019-01-11T04:51:37.568Z,34.23
2019-01-11T04:53:30.913Z,32.50
2019-01-11T04:55:23.963Z,36.53
2019-01-11T04:57:16.872Z,35.07
2019-01-11T04:59:09.783Z,35.50
2019-01-11T05:01:02.854Z,37.30
2019-01-11T05:02:56.716Z,35.37
2019-01-11T05:04:49.876Z,40.27
2019-01-11T05:06:42.861Z,38.60
2019-01-11T05:08:35.764Z,39.47
2019-01-11T05:10:28.648Z,38.30
2019-01-11T05:12:21.808Z,35.00
2019-01-11T05:14:16.061Z,35.03
2019-01-11T05:16:09.116Z,36.10
2019-01-11T05:18:02.134Z,44.13
2019-01-11T05:20:04.058Z,45.67
2019-01-11T05:21:57.209Z,42.60
2019-01-11T05:23:50.122Z,37.57
2019-01-11T05:25:43.999Z,39.60
2019-01-11T05:27:38.578Z,42.63
2019-01-11T05:29:32.695Z,35.27
2019-01-11T05:31:25.565Z,37.40
2019-01-11T05:33:18.459Z,34.57
2019-01-11T05:35:11.564Z,36.57
2019-01-11T05:37:05.102Z,35.20
2019-01-11T05:38:58.064Z,38.73
2019-01-11T05:40:51.434Z,43.80
2019-01-11T05:42:44.336Z,45.97
2019-01-11T05:44:37.164Z,53.17
2019-01-11T05:46:30.404Z,50.67
2019-01-11T05:48:23.536Z,41.23
2019-01-11T05:50:23.935Z,38.50
2019-01-11T05:52:14.086Z,39.17
2019-01-11T05:54:07.053Z,42.90
2019-01-11T05:56:02.685Z,39.63
2019-01-11T05:58:13.453Z,47.33
2019-01-11T06:00:06.629Z,42.63
2019-01-11T06:01:59.795Z,40.77
2019-01-11T06:03:54.395Z,39.17
2019-01-11T06:05:47.270Z,37.03
2019-01-11T06:07:44.737Z,34.37
2019-01-11T06:09:37.614Z,38.10
2019-01-11T06:11:30.687Z,32.37
2019-01-11T06:13:25.615Z,37.27
2019-01-11T06:15:18.477Z,37.43
2019-01-11T06:17:11.585Z,37.17
2019-01-11T06:19:04.723Z,39.53
2019-01-11T06:20:57.712Z,37.77
2019-01-11T06:22:50.903Z,39.10
2019-01-11T06:24:44.024Z,37.80
2019-01-11T06:26:36.809Z,37.30
2019-01-11T06:28:29.660Z,41.27
2019-01-11T06:30:22.449Z,42.77
2019-01-11T06:32:15.329Z,40.20
2019-01-11T06:34:08.203Z,42.80
2019-01-11T06:36:02.036Z,38.20
2019-01-11T06:37:54.971Z,38.23
2019-01-11T06:39:49.460Z,40.30
2019-01-11T06:41:47.936Z,56.77
2019-01-11T06:43:41.362Z,42.43
2019-01-11T06:45:36.147Z,41.70
2019-01-11T06:47:29.347Z,42.87
2019-01-11T06:49:22.949Z,43.10
2019-01-11T06:51:15.890Z,39.03
2019-01-11T06:53:09.379Z,35.47
2019-01-11T06:55:05.390Z,36.33
2019-01-11T06:56:57.970Z,37.20
2019-01-11T06:58:51.227Z,34.83
2019-01-11T07:00:43.820Z,35.43
2019-01-11T07:02:36.957Z,36.37
2019-01-11T07:04:30.096Z,32.73
2019-01-11T07:06:23.359Z,30.80
2019-01-11T07:08:16.499Z,35.20
2019-01-11T07:10:15.000Z,36.60
2019-01-11T07:12:07.992Z,35.83
2019-01-11T07:14:01.262Z,35.10
2019-01-11T07:15:54.387Z,34.87
2019-01-11T07:17:47.514Z,40.67
2019-01-11T07:19:40.310Z,62.77
2019-01-11T07:21:33.418Z,38.03
2019-01-11T07:23:26.405Z,34.93
2019-01-11T07:25:19.985Z,33.50
2019-01-11T07:27:12.895Z,38.83
2019-01-11T07:29:05.947Z,40.60
2019-01-11T07:31:05.682Z,36.53
2019-01-11T07:32:58.925Z,34.30
2019-01-11T07:34:51.858Z,36.60
2019-01-11T07:36:52.015Z,30.43
2019-01-11T07:38:45.039Z,35.07
2019-01-11T07:40:38.057Z,38.17
2019-01-11T07:42:31.223Z,37.37
2019-01-11T07:44:25.630Z,50.23
2019-01-11T07:46:18.794Z,37.10
2019-01-11T07:48:11.735Z,30.87
2019-01-11T07:50:04.602Z,36.30
2019-01-11T07:51:58.016Z,32.30
2019-01-11T07:53:51.173Z,37.00
2019-01-11T07:55:43.967Z,34.33
2019-01-11T07:57:37.333Z,33.10
2019-01-11T07:59:30.296Z,33.10
2019-01-11T08:01:23.592Z,56.27
2019-01-11T08:03:16.778Z,44.67
2019-01-11T08:05:09.773Z,47.43
2019-01-11T08:07:04.228Z,72.83
2019-01-11T08:08:57.574Z,49.07
2019-01-11T08:10:50.776Z,38.63
2019-01-11T08:12:43.759Z,39.10
2019-01-11T08:14:36.780Z,36.37
2019-01-11T08:16:29.775Z,34.00
2019-01-11T08:18:22.938Z,32.10
2019-01-11T08:20:15.968Z,28.43
2019-01-11T08:22:12.168Z,26.73
2019-01-11T08:24:05.212Z,32.43
2019-01-11T08:25:58.332Z,28.47
2019-01-11T08:27:51.453Z,29.27
2019-01-11T08:29:44.613Z,30.80
2019-01-11T08:31:37.583Z,28.70
2019-01-11T08:33:34.383Z,28.63
2019-01-11T08:35:27.391Z,29.30
2019-01-11T08:37:21.897Z,37.33
2019-01-11T08:39:16.947Z,49.33
2019-01-11T08:41:09.959Z,35.70
2019-01-11T08:43:03.712Z,35.43
2019-01-11T08:44:56.972Z,33.40
2019-01-11T08:46:49.959Z,28.60
2019-01-11T08:48:42.868Z,42.20
2019-01-11T08:50:36.235Z,36.73
2019-01-11T08:52:29.629Z,38.37
2019-01-11T08:54:22.548Z,41.90
2019-01-11T08:56:15.796Z,32.13
2019-01-11T08:58:08.940Z,27.37
2019-01-11T09:00:02.820Z,24.37
2019-01-11T09:01:55.852Z,29.80
2019-01-11T09:03:48.790Z,25.87
2019-01-11T09:05:42.149Z,22.50
2019-01-11T09:07:35.462Z,28.00
2019-01-11T09:09:28.349Z,35.93
2019-01-11T09:11:21.489Z,40.23
2019-01-11T09:13:14.390Z,26.30
2019-01-11T09:15:10.121Z,23.53
2019-01-11T09:17:03.256Z,22.77
2019-01-11T09:18:58.627Z,20.10
2019-01-11T09:20:51.672Z,22.63
2019-01-11T09:22:45.365Z,20.57
2019-01-11T09:24:38.019Z,18.67
2019-01-11T09:26:32.153Z,20.50
2019-01-11T09:28:25.332Z,19.07
2019-01-11T09:30:18.805Z,20.13
2019-01-11T09:32:11.726Z,19.43
2019-01-11T09:34:04.590Z,16.43
2019-01-11T09:35:57.807Z,16.97
2019-01-11T09:37:50.532Z,15.83
2019-01-11T09:39:44.006Z,17.93
2019-01-11T09:41:37.355Z,16.57
2019-01-11T09:43:30.780Z,15.93
2019-01-11T09:45:24.126Z,17.20
2019-01-11T09:47:16.992Z,17.33
2019-01-11T09:49:10.026Z,27.87
2019-01-11T09:51:03.378Z,18.57
2019-01-11T09:52:57.079Z,16.17
2019-01-11T09:54:50.380Z,15.73
2019-01-11T09:56:43.625Z,14.60
2019-01-11T09:58:36.706Z,15.73
2019-01-11T10:00:29.524Z,15.17
2019-01-11T10:02:43.180Z,14.43
2019-01-11T10:04:38.688Z,16.10
2019-01-11T10:06:33.469Z,16.37
2019-01-11T10:08:26.876Z,15.50
2019-01-11T10:10:19.704Z,16.50
2019-01-11T10:12:12.706Z,15.13
2019-01-11T10:14:05.871Z,14.43
2019-01-11T10:15:58.726Z,16.83
2019-01-11T10:17:52.443Z,15.13
2019-01-11T10:19:45.194Z,15.60
2019-01-11T10:21:38.986Z,14.47
2019-01-11T10:23:31.812Z,52.80
2019-01-11T10:25:24.921Z,51.77
2019-01-11T10:27:17.928Z,22.00
2019-01-11T10:29:10.904Z,20.73
2019-01-11T10:31:03.823Z,65.53
2019-01-11T10:32:56.852Z,40.87
2019-01-11T10:34:49.876Z,21.80
2019-01-11T10:36:42.848Z,15.47
2019-01-11T10:38:36.135Z,12.00
2019-01-11T10:40:28.771Z,23.10
2019-01-11T10:42:22.149Z,14.67
2019-01-11T10:44:15.029Z,12.27
2019-01-11T10:46:20.125Z,9.33
2019-01-11T10:48:12.908Z,10.33
2019-01-11T10:50:07.539Z,11.80
2019-01-11T10:52:00.237Z,8.90
2019-01-11T10:53:53.047Z,9.27
2019-01-11T10:55:45.910Z,8.87
2019-01-11T10:57:38.762Z,8.77
2019-01-11T10:59:32.028Z,9.30
2019-01-11T11:01:25.097Z,8.70
2019-01-11T11:03:19.153Z,11.10
2019-01-11T11:05:12.062Z,9.57
2019-01-11T11:07:05.663Z,10.17
2019-01-11T11:08:58.952Z,10.67
2019-01-11T11:10:52.150Z,8.90
2019-01-11T11:12:45.112Z,8.73
2019-01-11T11:14:37.820Z,11.53
2019-01-11T11:16:33.005Z,10.67
2019-01-11T11:18:26.483Z,9.30
2019-01-11T11:20:21.262Z,8.83
2019-01-11T11:22:14.470Z,9.80
2019-01-11T11:24:07.459Z,9.30
2019-01-11T11:26:00.272Z,9.13
2019-01-11T11:27:53.196Z,9.57
2019-01-11T11:29:46.433Z,8.83
2019-01-11T11:31:39.375Z,9.77
2019-01-11T11:33:33.147Z,11.47
2019-01-11T11:35:26.954Z,13.37
2019-01-11T11:37:20.015Z,10.30
2019-01-11T11:39:13.870Z,10.63
2019-01-11T11:41:06.825Z,9.63
2019-01-11T11:43:00.336Z,10.63
2019-01-11T11:44:53.331Z,11.20
2019-01-11T11:46:46.213Z,10.57
2019-01-11T11:48:39.460Z,11.00
2019-01-11T11:50:32.617Z,15.40
2019-01-11T11:52:25.678Z,11.67
2019-01-11T11:54:18.868Z,12.47
2019-01-11T11:56:12.283Z,12.43
2019-01-11T11:58:05.585Z,11.63
2019-01-11T11:59:59.912Z,12.60
2019-01-11T12:01:54.798Z,12.03
2019-01-11T12:03:47.826Z,14.93
2019-01-11T12:05:41.552Z,12.73
2019-01-11T12:07:34.522Z,69.53
2019-01-11T12:09:27.536Z,94.70
2019-01-11T12:11:20.435Z,95.00
2019-01-11T12:13:13.926Z,73.17
2019-01-11T12:15:07.546Z,299.50
2019-01-11T12:17:00.375Z,38.27
2019-01-11T12:18:53.115Z,75.07
2019-01-11T12:20:46.445Z,24.67
2019-01-11T12:22:40.004Z,30.17
2019-01-11T12:24:32.914Z,20.70
2019-01-11T12:26:26.481Z,20.37
2019-01-11T12:28:19.475Z,56.67
2019-01-11T12:30:13.716Z,20.90
2019-01-11T12:32:07.361Z,14.07
2019-01-11T12:34:00.745Z,20.10
2019-01-11T12:35:53.639Z,15.37
2019-01-11T12:37:47.516Z,14.00
2019-01-11T12:39:40.108Z,16.13
2019-01-11T12:41:33.160Z,18.83
2019-01-11T12:43:28.015Z,17.63
2019-01-11T12:45:20.792Z,14.43
2019-01-11T12:47:14.074Z,17.53
2019-01-11T12:49:06.922Z,29.20
2019-01-11T12:50:59.886Z,40.77
2019-01-11T12:52:52.831Z,29.47
2019-01-11T12:54:45.925Z,28.37
2019-01-11T12:56:38.996Z,25.53
2019-01-11T12:58:32.023Z,28.60
2019-01-11T13:00:25.074Z,35.10
2019-01-11T13:02:17.990Z,18.77
2019-01-11T13:04:10.725Z,14.77
2019-01-11T13:06:05.006Z,43.10
2019-01-11T13:07:57.947Z,21.93
2019-01-11T13:09:51.813Z,20.07
2019-01-11T13:11:44.945Z,21.17
2019-01-11T13:13:37.955Z,26.60
2019-01-11T13:15:31.017Z,28.97
2019-01-11T13:17:25.299Z,23.23
2019-01-11T13:19:19.485Z,17.50
2019-01-11T13:21:12.385Z,22.10
2019-01-11T13:23:06.800Z,17.03
2019-01-11T13:24:59.716Z,23.20
2019-01-11T13:26:52.580Z,23.00
2019-01-11T13:28:48.175Z,20.93
2019-01-11T13:30:41.035Z,24.23
2019-01-11T13:32:33.908Z,27.23
2019-01-11T13:34:26.926Z,22.43
2019-01-11T13:36:21.945Z,18.70
2019-01-11T13:38:14.855Z,29.33
2019-01-11T13:40:29.386Z,21.30
2019-01-11T13:42:22.385Z,19.80
2019-01-11T13:44:15.845Z,21.70
2019-01-11T13:46:08.885Z,46.43
2019-01-11T13:48:04.813Z,71.93
2019-01-11T13:49:58.151Z,29.17
2019-01-11T13:51:52.886Z,41.27
2019-01-11T13:53:46.151Z,58.10
2019-01-11T13:55:39.397Z,32.43
2019-01-11T13:57:32.394Z,29.17
2019-01-11T13:59:26.025Z,32.73
2019-01-11T14:01:18.895Z,27.00
2019-01-11T14:03:12.748Z,25.97
2019-01-11T14:05:07.506Z,20.27
2019-01-11T14:07:01.061Z,19.70
2019-01-11T14:08:54.295Z,24.00
2019-01-11T14:10:47.887Z,29.07
2019-01-11T14:12:40.910Z,21.57
2019-01-11T14:14:34.525Z,17.67
2019-01-11T14:16:27.726Z,17.07
2019-01-11T14:18:22.325Z,20.77
2019-01-11T14:20:16.545Z,22.10
2019-01-11T14:22:13.653Z,21.70
2019-01-11T14:24:05.815Z,24.53
2019-01-11T14:25:58.765Z,26.57
2019-01-11T14:27:51.787Z,22.50
2019-01-11T14:29:45.127Z,21.93
2019-01-11T14:31:42.768Z,27.70
2019-01-11T14:33:36.679Z,23.07
2019-01-11T14:35:30.186Z,42.70
2019-01-11T14:37:25.077Z,43.50
2019-01-11T14:39:18.475Z,33.73
2019-01-11T14:41:11.969Z,32.73
2019-01-11T14:43:05.438Z,31.73
2019-01-11T14:44:58.695Z,23.90
2019-01-11T14:46:51.758Z,21.47
2019-01-11T14:48:44.773Z,17.97
2019-01-11T14:50:39.125Z,20.20
2019-01-11T14:52:32.377Z,21.70
2019-01-11T14:54:25.157Z,18.20
2019-01-11T14:56:19.675Z,18.40
2019-01-11T14:58:13.060Z,20.97
2019-01-11T15:00:10.286Z,18.57
2019-01-11T15:02:03.307Z,20.90
2019-01-11T15:03:57.055Z,21.90
2019-01-11T15:05:51.937Z,20.97
2019-01-11T15:07:45.421Z,23.17
2019-01-11T15:09:38.406Z,21.77
2019-01-11T15:11:31.774Z,20.13
2019-01-11T15:13:24.697Z,20.37
2019-01-11T15:15:18.505Z,23.17
2019-01-11T15:17:11.567Z,20.40
2019-01-11T15:19:05.495Z,21.33
2019-01-11T15:20:58.916Z,23.97
2019-01-11T15:22:52.433Z,29.33
2019-01-11T15:24:46.194Z,30.37
2019-01-11T15:26:40.116Z,30.17
2019-01-11T15:28:33.406Z,26.90
2019-01-11T15:30:27.986Z,28.00
2019-01-11T15:32:21.155Z,40.20
2019-01-11T15:34:14.252Z,34.20
2019-01-11T15:36:07.366Z,57.93
2019-01-11T15:38:00.606Z,44.77
2019-01-11T15:39:54.411Z,30.57
2019-01-11T15:41:47.906Z,24.57
2019-01-11T15:43:40.963Z,32.67
2019-01-11T15:45:34.795Z,36.63
2019-01-11T15:47:27.850Z,44.67
2019-01-11T15:49:20.845Z,61.67
2019-01-11T15:51:13.865Z,35.67
2019-01-11T15:53:08.266Z,17.03
2019-01-11T15:55:02.456Z,33.10
2019-01-11T15:56:56.363Z,23.87
2019-01-11T15:58:49.365Z,27.77
2019-01-11T16:00:48.926Z,40.20
2019-01-11T16:02:42.085Z,28.80
2019-01-11T16:04:35.225Z,30.17
2019-01-11T16:06:41.795Z,29.30
2019-01-11T16:08:34.650Z,19.70
2019-01-11T16:10:27.719Z,23.87
2019-01-11T16:12:22.515Z,35.37
2019-01-11T16:15:20.135Z,40.80
2019-01-11T16:17:16.565Z,35.37
2019-01-11T16:19:10.783Z,35.90
2019-01-11T16:21:04.314Z,19.17
2019-01-11T16:22:57.696Z,25.67
2019-01-11T16:24:51.106Z,20.33
2019-01-11T16:26:44.565Z,40.23
2019-01-11T16:28:38.009Z,25.57
2019-01-11T16:30:31.698Z,20.33
2019-01-11T16:32:25.256Z,24.07
2019-01-11T16:34:18.595Z,24.57
2019-01-11T16:36:12.024Z,31.70
2019-01-11T16:38:06.153Z,27.07
2019-01-11T16:40:01.813Z,18.77
2019-01-11T16:41:57.176Z,9.73
2019-01-11T16:43:50.527Z,10.77
2019-01-11T16:45:44.303Z,17.83
2019-01-11T16:47:38.524Z,16.43
2019-01-11T16:49:32.494Z,16.37
2019-01-11T16:51:26.485Z,21.33
2019-01-11T16:53:19.709Z,20.00
2019-01-11T16:55:12.996Z,28.17
2019-01-11T16:57:06.629Z,13.73
2019-01-11T16:58:59.807Z,13.20
2019-01-11T17:00:53.526Z,14.20
2019-01-11T17:02:47.575Z,17.30
2019-01-11T17:04:40.936Z,15.43
2019-01-11T17:06:34.228Z,14.93
2019-01-11T17:08:28.401Z,16.90
2019-01-11T17:10:22.535Z,76.30
2019-01-11T17:12:15.806Z,24.70
2019-01-11T17:14:10.363Z,25.40
2019-01-11T17:16:03.485Z,22.00
2019-01-11T17:17:56.656Z,31.10
2019-01-11T17:19:50.897Z,31.07
2019-01-11T17:21:45.016Z,16.07
2019-01-11T17:23:38.873Z,14.20
2019-01-11T17:25:32.275Z,13.17
2019-01-11T17:27:25.526Z,11.63
2019-01-11T17:29:19.306Z,11.60
2019-01-11T17:31:13.225Z,19.10
2019-01-11T17:33:07.065Z,11.83
2019-01-11T17:35:00.608Z,22.43
2019-01-11T17:36:55.442Z,13.33
2019-01-11T17:38:49.155Z,12.03
2019-01-11T17:40:42.976Z,22.93
2019-01-11T17:42:37.475Z,12.97
2019-01-11T17:44:32.157Z,15.67
2019-01-11T17:46:25.845Z,9.90
2019-01-11T17:48:20.885Z,11.30
2019-01-11T17:50:20.008Z,15.07
2019-01-11T17:52:13.699Z,15.60
2019-01-11T17:54:07.768Z,12.20
2019-01-11T17:56:01.655Z,11.50
2019-01-11T17:57:55.456Z,9.30
2019-01-11T17:59:48.993Z,9.37
2019-01-11T18:01:42.777Z,9.03
2019-01-11T18:03:37.623Z,9.07
2019-01-11T18:05:31.353Z,6.20
2019-01-11T18:07:24.912Z,10.20
2019-01-11T18:09:18.711Z,10.20
2019-01-11T18:11:13.325Z,36.80
2019-01-11T18:13:07.317Z,13.33
2019-01-11T18:15:01.892Z,32.47
2019-01-11T18:16:57.653Z,12.70
2019-01-11T18:18:51.533Z,11.70
2019-01-11T18:20:45.356Z,45.53
2019-01-11T18:22:39.166Z,18.60
2019-01-11T18:24:32.918Z,16.80
2019-01-11T18:26:26.886Z,33.20
2019-01-11T18:28:20.624Z,33.10
2019-01-11T18:30:15.725Z,11.47
2019-01-11T18:32:09.536Z,11.63
2019-01-11T18:34:03.052Z,8.73
2019-01-11T18:35:56.836Z,7.33
2019-01-11T18:37:50.526Z,10.13
2019-01-11T18:39:45.616Z,7.20
2019-01-11T18:41:39.403Z,6.80
2019-01-11T18:43:33.083Z,9.70
2019-01-11T18:45:28.832Z,6.97
2019-01-11T18:47:22.486Z,7.23
2019-01-11T18:49:16.027Z,8.87
2019-01-11T18:51:11.317Z,8.87
2019-01-11T18:53:04.873Z,8.70
2019-01-11T18:54:58.857Z,8.37
2019-01-11T18:56:52.526Z,7.93
2019-01-11T18:58:46.323Z,7.23
2019-01-11T19:00:40.132Z,8.30
2019-01-11T19:02:33.994Z,7.43
2019-01-11T19:04:27.827Z,7.90
2019-01-11T19:06:21.435Z,7.37
2019-01-11T19:08:15.016Z,9.70
2019-01-11T19:10:11.628Z,7.20
2019-01-11T19:12:05.400Z,8.33
2019-01-11T19:13:59.634Z,8.43
2019-01-11T19:15:53.984Z,8.17
2019-01-11T19:17:48.258Z,7.47
2019-01-11T19:19:42.026Z,7.87
2019-01-11T19:21:35.933Z,6.87
2019-01-11T19:23:30.045Z,6.50
2019-01-11T19:25:24.085Z,5.80
2019-01-11T19:27:18.193Z,5.73
2019-01-11T19:29:11.955Z,6.70
2019-01-11T19:31:06.106Z,6.03
2019-01-11T19:33:00.118Z,5.87
2019-01-11T19:34:54.125Z,6.07
2019-01-11T19:36:47.966Z,6.23
2019-01-11T19:38:41.646Z,6.23
2019-01-11T19:40:35.687Z,6.57
2019-01-11T19:42:29.595Z,6.17
2019-01-11T19:44:23.438Z,6.83
2019-01-11T19:46:17.333Z,10.57
2019-01-11T19:48:11.335Z,9.73
2019-01-11T19:50:06.016Z,9.87
2019-01-11T19:52:00.097Z,8.20
2019-01-11T19:53:53.977Z,8.83
2019-01-11T19:55:48.843Z,6.10
2019-01-11T19:57:42.864Z,6.23
2019-01-11T19:59:37.156Z,7.30
2019-01-11T20:01:31.098Z,8.63
2019-01-11T20:03:25.211Z,5.90
2019-01-11T20:05:19.302Z,14.00
2019-01-11T20:07:13.335Z,6.00
2019-01-11T20:09:09.195Z,5.20
2019-01-11T20:11:03.290Z,6.87
2019-01-11T20:12:58.187Z,5.47
2019-01-11T20:14:52.202Z,6.57
2019-01-11T20:16:46.063Z,6.53
2019-01-11T20:18:40.424Z,5.30
2019-01-11T20:20:34.373Z,5.63
2019-01-11T20:22:28.376Z,7.30
2019-01-11T20:24:23.917Z,8.07
2019-01-11T20:26:18.906Z,7.27
2019-01-11T20:28:13.152Z,6.40
2019-01-11T20:30:08.310Z,6.03
2019-01-11T20:32:02.186Z,7.27
2019-01-11T20:33:56.966Z,5.90
2019-01-11T20:35:50.776Z,8.00
2019-01-11T20:37:45.337Z,6.33
2019-01-11T20:39:39.305Z,4.80
2019-01-11T20:41:33.583Z,6.03
2019-01-11T20:43:29.264Z,5.40
2019-01-11T20:45:24.476Z,4.23
2019-01-11T20:47:19.322Z,4.43
2019-01-11T20:49:13.813Z,4.33
2019-01-11T20:51:08.546Z,4.70
2019-01-11T20:53:02.377Z,5.43
2019-01-11T20:54:56.226Z,5.07
2019-01-11T20:56:50.446Z,4.80
2019-01-11T20:58:44.432Z,4.93
2019-01-11T21:00:38.582Z,4.53
2019-01-11T21:02:32.116Z,5.03
2019-01-11T21:04:25.917Z,4.90
2019-01-11T21:06:19.906Z,4.00
2019-01-11T21:08:14.606Z,4.47
2019-01-11T21:10:09.176Z,4.77
2019-01-11T21:12:05.633Z,5.10
2019-01-11T21:13:59.536Z,5.37
2019-01-11T21:15:53.756Z,14.67
2019-01-11T21:17:50.386Z,5.93
2019-01-11T21:19:44.254Z,24.27
2019-01-11T21:21:37.948Z,8.63
2019-01-11T21:23:33.715Z,6.43
2019-01-11T21:25:27.466Z,15.70
2019-01-11T21:27:21.492Z,7.60
2019-01-11T21:29:15.096Z,6.67
2019-01-11T21:31:09.066Z,7.33
2019-01-11T21:33:05.103Z,8.93
2019-01-11T21:34:59.726Z,8.50
2019-01-11T21:36:54.355Z,9.27
2019-01-11T21:38:49.206Z,11.60
2019-01-11T21:40:43.485Z,9.50
2019-01-11T21:42:37.513Z,9.57
2019-01-11T21:44:31.344Z,9.47
2019-01-11T21:46:24.799Z,8.43
2019-01-11T21:48:21.385Z,8.90
2019-01-11T21:50:20.131Z,9.93
2019-01-11T21:52:15.506Z,6.17
2019-01-11T21:54:09.115Z,8.73
2019-01-11T21:56:02.416Z,12.20
2019-01-11T21:57:56.129Z,25.57
2019-01-11T21:59:49.422Z,10.13
2019-01-11T22:01:43.037Z,13.07
2019-01-11T22:03:36.374Z,10.50
2019-01-11T22:05:29.689Z,12.43
2019-01-11T22:07:22.759Z,9.43
2019-01-11T22:09:17.004Z,8.63
2019-01-11T22:11:09.989Z,10.17
2019-01-11T22:13:03.310Z,8.23
2019-01-11T22:14:56.312Z,14.20
2019-01-11T22:16:50.998Z,9.30
2019-01-11T22:18:43.865Z,13.43
2019-01-11T22:20:37.985Z,10.07
2019-01-11T22:22:32.242Z,9.07
2019-01-11T22:24:26.414Z,13.60
2019-01-11T22:26:20.686Z,13.37
2019-01-11T22:28:14.933Z,8.77
2019-01-11T22:30:15.657Z,8.10
2019-01-11T22:32:09.133Z,7.67
2019-01-11T22:34:03.455Z,8.97
2019-01-11T22:35:56.593Z,9.13
2019-01-11T22:37:51.466Z,8.20
2019-01-11T22:39:45.066Z,8.17
2019-01-11T22:41:38.683Z,11.77
2019-01-11T22:43:31.828Z,7.40
2019-01-11T22:45:26.397Z,7.67
2019-01-11T22:47:19.598Z,8.07
2019-01-11T22:49:12.458Z,6.03
2019-01-11T22:51:05.503Z,6.50
2019-01-11T22:53:00.229Z,6.57
2019-01-11T22:54:53.486Z,8.03
2019-01-11T22:56:47.828Z,5.87
2019-01-11T22:58:41.037Z,6.93
2019-01-11T23:01:51.804Z,8.17
2019-01-11T23:03:49.567Z,6.60
2019-01-11T23:05:44.144Z,8.10
2019-01-11T23:08:00.460Z,5.63
2019-01-11T23:10:42.661Z,6.83
2019-01-11T23:13:07.264Z,6.90
2019-01-11T23:15:02.082Z,6.57
2019-01-11T23:17:39.654Z,6.67
2019-01-11T23:19:32.537Z,7.57
2019-01-11T23:21:25.572Z,6.90
2019-01-11T23:23:18.659Z,6.67
2019-01-11T23:25:11.790Z,7.37
2019-01-11T23:27:05.257Z,7.13
2019-01-11T23:28:58.288Z,8.80
2019-01-11T23:30:51.283Z,6.73
2019-01-11T23:32:44.693Z,11.83
2019-01-11T23:34:37.863Z,6.93
2019-01-11T23:36:32.868Z,8.10
2019-01-11T23:38:26.321Z,6.70
2019-01-11T23:40:19.738Z,9.13
2019-01-11T23:42:12.800Z,9.57
2019-01-11T23:44:06.005Z,8.33
2019-01-11T23:45:59.356Z,7.90
2019-01-11T23:47:52.718Z,7.80
2019-01-11T23:49:45.726Z,7.13
2019-01-11T23:51:38.850Z,6.43
2019-01-11T23:53:31.898Z,7.20
2019-01-11T23:55:24.953Z,6.53
2019-01-11T23:57:18.127Z,6.67
2019-01-11T23:59:11.357Z,8.07
